Sant Feliu de Llobregat, Spain
Current Conditions -  °F | °C
As of 5:00 AM on Friday 28 Nov 2014 (Local Time) from LEBL Reporting Station
Drizzle Drizzle  
Wind Chill: 61°   Ceiling: Unl
Heat Index: 61°   Visibility: 5mi
Dew Point: 57°   Wind: 6mph
Humidity: 88%   Direction: 220°SW
Pressure: 29.38"   Gusts: NA
Location:  41.38°N, 2.05°E
Report Text: LEBL 280400Z 22005KT 170V240 8000 -DZ SCT015 FEW056TCU16/14 Q0995 NOSIG
Loading
Personal Weather Stations






























Interactive Weather Map New forecast layout! Learn more

10-Day Weather Forecast

Advertisements
Track Severe Weather on mobile